Time;durP1;ratioP1;P1;durP2;ratioP2;P2;SDS_P1;SDS_P2;PMS_P1;PMS_P2;Temp;Humidity;BMP_temperature;BMP_pressure;BME280_temperature;BME280_humidity;BME280_pressure;Samples;Min_cycle;Max_cycle;Signal;HPM_P1;HPM_P2
2021/09/29 00:02:01;;;;;;;;;;;;;;;14.11;69.42;100043.56;5053620;28;19928;-64
2021/09/29 00:04:45;;;;;;;;;;;;;;;14.11;69.34;100037.47;5053230;28;19932;-65
2021/09/29 00:07:29;;;;;;;;;;;;;;;14.09;69.47;100032.28;5053544;28;19927;-64
2021/09/29 00:10:19;;;;;;;;;;;;;;;14.10;69.13;100038.34;5053742;28;19928;-64
2021/09/29 00:13:08;;;;;;;;;;;;;;;14.09;69.45;100031.41;5053139;28;19927;-64
2021/09/29 00:15:54;;;;;;;;;;;;;;;14.08;69.55;100029.69;5052453;28;19946;-64
2021/09/29 00:18:38;;;;;;;;;;;;;;;14.07;69.29;100031.41;5053405;28;19955;-65
2021/09/29 00:21:22;;;;;;;;;;;;;;;14.05;69.51;100025.31;5052390;28;20019;-64
2021/09/29 00:24:06;;;;;;;;;;;;;;;14.05;69.45;100017.50;5053718;28;19927;-64
2021/09/29 00:26:50;;;;;;;;;;;;;;;14.05;69.43;100027.91;5053169;28;20307;-64
2021/09/29 00:29:34;;;;;;;;;;;;;;;14.03;69.35;100024.44;5053520;28;19974;-64
2021/09/29 00:32:19;;;;;;;;;;;;;;;14.02;69.34;100017.47;5054095;28;19928;-64
2021/09/29 00:35:03;;;;;;;;;;;;;;;14.01;69.41;100010.56;5056453;28;20350;-64
2021/09/29 00:37:49;;;;;;;;;;;;;;;14.00;69.29;100012.28;5056248;28;19928;-64
2021/09/29 00:40:33;;;;;;;;;;;;;;;13.98;69.16;100005.34;5057193;28;19954;-64
2021/09/29 00:43:17;;;;;;;;;;;;;;;13.98;69.54;100005.34;5056419;28;20375;-64
2021/09/29 00:46:01;;;;;;;;;;;;;;;13.98;69.54;99989.69;5057559;28;19928;-64
2021/09/29 00:48:45;;;;;;;;;;;;;;;13.98;69.54;99992.31;5057443;28;19931;-64
2021/09/29 00:51:28;;;;;;;;;;;;;;;13.95;69.50;99995.75;5057124;28;19975;-64
2021/09/29 00:54:13;;;;;;;;;;;;;;;13.93;69.38;99987.09;5055654;28;20054;-64
2021/09/29 00:56:57;;;;;;;;;;;;;;;13.93;69.45;99979.28;5056014;28;19927;-64
2021/09/29 00:59:41;;;;;;;;;;;;;;;13.93;69.44;99981.88;5056994;28;19928;-63
2021/09/29 01:02:25;;;;;;;;;;;;;;;13.93;69.43;99975.78;5055659;28;19932;-64
2021/09/29 01:05:12;;;;;;;;;;;;;;;13.93;69.42;99979.28;5056430;28;19928;-64
2021/09/29 01:08:25;;;;;;;;;;;;;;;13.93;69.36;99974.06;5055931;28;19975;-63
2021/09/29 01:11:12;;;;;;;;;;;;;;;13.93;69.30;99976.69;5051048;28;19947;-64
2021/09/29 01:13:58;;;;;;;;;;;;;;;13.93;69.45;99960.16;5055939;28;19951;-64
2021/09/29 01:16:44;;;;;;;;;;;;;;;13.92;69.37;99966.22;5056661;28;19927;-64
2021/09/29 01:19:41;;;;;;;;;;;;;;;13.92;69.44;99963.63;5056771;28;20347;-64
2021/09/29 01:22:43;;;;;;;;;;;;;;;13.90;69.24;99950.63;5055371;28;19931;-63
2021/09/29 01:25:36;;;;;;;;;;;;;;;13.89;69.27;99948.88;5055223;28;19928;-64
2021/09/29 01:28:23;;;;;;;;;;;;;;;13.90;69.30;99939.31;5055271;28;19947;-63
2021/09/29 01:31:10;;;;;;;;;;;;;;;13.89;69.38;99935.84;5056270;28;19928;-64
2021/09/29 01:33:54;;;;;;;;;;;;;;;13.88;69.50;99938.44;5055987;28;19928;-64
2021/09/29 01:36:41;;;;;;;;;;;;;;;13.88;69.28;99930.63;5056198;28;19927;-64
2021/09/29 01:39:27;;;;;;;;;;;;;;;13.88;69.26;99923.69;5056176;28;19943;-63
2021/09/29 01:42:11;;;;;;;;;;;;;;;13.87;69.43;99919.34;5056267;28;19959;-64
2021/09/29 01:44:55;;;;;;;;;;;;;;;13.87;69.35;99921.94;5055989;28;19951;-64
2021/09/29 01:47:39;;;;;;;;;;;;;;;13.84;69.24;99907.19;5055415;28;20438;-64
2021/09/29 01:50:28;;;;;;;;;;;;;;;13.84;69.24;99908.91;5055670;28;19928;-63
2021/09/29 01:53:12;;;;;;;;;;;;;;;13.83;69.30;99892.44;5055173;28;19983;-63
2021/09/29 01:55:56;;;;;;;;;;;;;;;13.82;69.32;99895.91;5056046;28;20382;-63
2021/09/29 01:58:42;;;;;;;;;;;;;;;13.83;69.35;99887.22;5055681;28;19974;-64
2021/09/29 02:01:26;;;;;;;;;;;;;;;13.83;69.37;99886.34;5054217;28;19966;-64
2021/09/29 02:04:11;;;;;;;;;;;;;;;13.82;69.28;99879.41;5054602;28;20010;-64
2021/09/29 02:06:56;;;;;;;;;;;;;;;13.82;69.27;99882.88;5054932;28;19982;-63
2021/09/29 02:09:42;;;;;;;;;;;;;;;13.82;69.31;99871.56;5054993;28;19966;-63
2021/09/29 02:12:26;;;;;;;;;;;;;;;13.82;69.49;99879.41;5054595;28;19958;-64
2021/09/29 02:15:10;;;;;;;;;;;;;;;13.81;69.27;99864.63;5055637;28;19928;-64
2021/09/29 02:17:54;;;;;;;;;;;;;;;13.82;69.35;99858.56;5054407;28;20358;-64
2021/09/29 02:20:41;;;;;;;;;;;;;;;13.81;69.55;99864.63;5055226;28;20001;-63
2021/09/29 02:23:27;;;;;;;;;;;;;;;13.79;69.25;99848.13;5055310;28;19953;-63
2021/09/29 02:26:12;;;;;;;;;;;;;;;13.79;69.25;99861.16;5055725;28;19974;-63
2021/09/29 02:28:55;;;;;;;;;;;;;;;13.79;69.31;99853.34;5055193;28;19927;-63
2021/09/29 02:31:40;;;;;;;;;;;;;;;13.79;69.30;99856.84;5055168;28;19927;-64
2021/09/29 02:34:24;;;;;;;;;;;;;;;13.79;69.28;99854.22;5054016;28;19928;-63
2021/09/29 02:37:10;;;;;;;;;;;;;;;13.80;69.39;99849.88;5054641;28;19950;-63
2021/09/29 02:39:54;;;;;;;;;;;;;;;13.78;69.34;99852.50;5054129;28;20564;-64
2021/09/29 02:42:41;;;;;;;;;;;;;;;13.77;69.43;99850.75;5054263;28;19990;-63
2021/09/29 02:45:31;;;;;;;;;;;;;;;13.77;69.36;99845.53;5053823;28;20020;-64
2021/09/29 02:48:15;;;;;;;;;;;;;;;13.77;69.35;99835.13;5053943;28;19951;-64
2021/09/29 02:51:01;;;;;;;;;;;;;;;13.78;69.30;99833.41;5053815;28;19931;-63
2021/09/29 02:53:47;;;;;;;;;;;;;;;13.77;69.31;99832.50;5054173;28;19932;-64
2021/09/29 02:56:31;;;;;;;;;;;;;;;13.79;69.52;99830.78;5054083;28;19927;-64
2021/09/29 02:59:15;;;;;;;;;;;;;;;13.79;69.22;99832.50;5054446;28;19966;-64
2021/09/29 03:01:59;;;;;;;;;;;;;;;13.78;69.27;99836.00;5053936;28;19967;-65
2021/09/29 03:04:43;;;;;;;;;;;;;;;13.77;69.49;99829.91;5054883;28;20005;-63
2021/09/29 03:07:30;;;;;;;;;;;;;;;13.77;69.54;99822.09;5053700;28;19927;-63
2021/09/29 03:10:16;;;;;;;;;;;;;;;13.78;69.36;99823.84;5053492;28;19927;-63
2021/09/29 03:13:00;;;;;;;;;;;;;;;13.78;69.53;99822.97;5053213;28;20303;-63
2021/09/29 03:15:47;;;;;;;;;;;;;;;13.77;69.38;99813.44;5053415;28;19927;-64
2021/09/29 03:18:31;;;;;;;;;;;;;;;13.75;69.50;99809.97;5053744;28;20417;-64
2021/09/29 03:21:16;;;;;;;;;;;;;;;13.75;69.33;99809.97;5053681;28;19974;-64
2021/09/29 03:24:00;;;;;;;;;;;;;;;13.74;69.52;99803.88;5052977;28;19927;-63
2021/09/29 03:26:44;;;;;;;;;;;;;;;13.76;69.38;99801.28;5054059;28;19927;-63
2021/09/29 03:29:30;;;;;;;;;;;;;;;13.76;69.38;99799.53;5052982;28;19974;-63
2021/09/29 03:32:14;;;;;;;;;;;;;;;13.77;69.43;99790.00;5053285;28;20008;-63
2021/09/29 03:34:58;;;;;;;;;;;;;;;13.77;69.38;99788.25;5054204;28;20020;-63
2021/09/29 03:37:43;;;;;;;;;;;;;;;13.75;69.58;99794.34;5053950;28;19947;-63
2021/09/29 03:40:27;;;;;;;;;;;;;;;13.76;69.52;99796.91;5053299;28;20010;-63
2021/09/29 03:43:11;;;;;;;;;;;;;;;13.78;69.63;99795.19;5053971;28;19966;-63
2021/09/29 03:45:55;;;;;;;;;;;;;;;13.77;69.67;99796.06;5053629;28;19931;-63
2021/09/29 03:48:41;;;;;;;;;;;;;;;13.78;69.56;99799.53;5053905;28;20494;-63
2021/09/29 03:51:28;;;;;;;;;;;;;;;13.78;69.53;99794.34;5054240;28;19931;-63
2021/09/29 03:54:12;;;;;;;;;;;;;;;13.77;69.58;99792.59;5053798;28;19947;-63
2021/09/29 03:56:59;;;;;;;;;;;;;;;13.77;69.49;99787.38;5052789;28;19947;-63
2021/09/29 03:59:43;;;;;;;;;;;;;;;13.77;69.49;99792.59;5053169;28;19928;-64
2021/09/29 04:02:29;;;;;;;;;;;;;;;13.78;69.65;99800.41;5052558;28;19970;-63
2021/09/29 04:05:14;;;;;;;;;;;;;;;13.79;69.49;99803.84;5054009;28;19928;-63
2021/09/29 04:07:57;;;;;;;;;;;;;;;13.77;69.44;99798.66;5055962;28;19927;-63
2021/09/29 04:10:42;;;;;;;;;;;;;;;13.78;69.58;99789.13;5056808;28;19928;-64
2021/09/29 04:13:28;;;;;;;;;;;;;;;13.78;69.44;99781.31;5057169;28;19943;-64
2021/09/29 04:16:12;;;;;;;;;;;;;;;13.77;69.66;99779.56;5057146;28;20341;-64
2021/09/29 04:18:58;;;;;;;;;;;;;;;13.77;69.69;99783.03;5057114;28;19927;-64
2021/09/29 04:21:43;;;;;;;;;;;;;;;13.78;69.75;99782.16;5057731;28;19928;-63
2021/09/29 04:24:29;;;;;;;;;;;;;;;13.78;69.69;99773.50;5056741;28;19959;-63
2021/09/29 04:27:13;;;;;;;;;;;;;;;13.78;69.64;99778.72;5057417;28;19928;-63
2021/09/29 04:29:57;;;;;;;;;;;;;;;13.78;69.79;99778.72;5056752;28;20067;-63
2021/09/29 04:32:42;;;;;;;;;;;;;;;13.78;69.66;99774.34;5057775;28;20364;-63
2021/09/29 04:35:28;;;;;;;;;;;;;;;13.79;69.53;99770.88;5057710;28;19994;-64
2021/09/29 04:38:15;;;;;;;;;;;;;;;13.79;69.79;99772.59;5057481;28;20422;-63
2021/09/29 04:41:01;;;;;;;;;;;;;;;13.78;69.83;99763.09;5056599;28;19931;-65
2021/09/29 04:43:48;;;;;;;;;;;;;;;13.78;69.74;99758.72;5056819;28;20390;-64
2021/09/29 04:46:35;;;;;;;;;;;;;;;13.78;69.97;99750.91;5057204;28;19991;-63
2021/09/29 04:49:19;;;;;;;;;;;;;;;13.78;69.91;99760.47;5055988;28;19928;-63
2021/09/29 04:52:03;;;;;;;;;;;;;;;13.78;69.83;99753.50;5057341;28;19951;-64
2021/09/29 04:54:47;;;;;;;;;;;;;;;13.77;69.88;99736.16;5056959;28;19928;-64
2021/09/29 04:57:32;;;;;;;;;;;;;;;13.78;69.87;99742.25;5056916;28;20028;-64
2021/09/29 05:00:16;;;;;;;;;;;;;;;13.78;69.86;99744.84;5056324;28;19936;-63
2021/09/29 05:03:02;;;;;;;;;;;;;;;13.78;70.02;99740.50;5056728;28;20442;-63
2021/09/29 05:05:46;;;;;;;;;;;;;;;13.78;69.87;99748.31;5056165;28;19928;-64
2021/09/29 05:08:33;;;;;;;;;;;;;;;13.79;69.87;99749.16;5055957;28;19974;-64
2021/09/29 05:11:26;;;;;;;;;;;;;;;13.78;69.98;99744.84;5055799;28;20284;-64
2021/09/29 05:14:12;;;;;;;;;;;;;;;13.76;70.00;99739.63;5056996;28;19951;-63
2021/09/29 05:16:56;;;;;;;;;;;;;;;13.76;69.84;99741.38;5055545;28;19973;-64
2021/09/29 05:19:40;;;;;;;;;;;;;;;13.76;69.83;99744.84;5056098;28;20387;-63
2021/09/29 05:22:24;;;;;;;;;;;;;;;13.77;69.88;99740.50;5056461;28;20004;-64
2021/09/29 05:25:08;;;;;;;;;;;;;;;13.75;69.90;99748.31;5055672;28;20406;-64
2021/09/29 05:27:53;;;;;;;;;;;;;;;13.75;69.84;99744.84;5055372;28;19974;-64
2021/09/29 05:30:36;;;;;;;;;;;;;;;13.74;69.99;99743.97;5056431;28;19943;-63
2021/09/29 05:33:23;;;;;;;;;;;;;;;13.75;70.05;99753.50;5056511;28;19974;-64
2021/09/29 05:36:07;;;;;;;;;;;;;;;13.74;70.01;99746.56;5055151;28;20288;-64
2021/09/29 05:38:51;;;;;;;;;;;;;;;13.75;69.90;99750.06;5055293;28;19927;-63
2021/09/29 05:41:35;;;;;;;;;;;;;;;13.74;70.03;99761.34;5055043;28;19973;-64
2021/09/29 05:44:18;;;;;;;;;;;;;;;13.73;70.08;99767.41;5056166;28;20016;-63
2021/09/29 05:47:03;;;;;;;;;;;;;;;13.73;70.15;99762.22;5055012;28;20296;-63
2021/09/29 05:49:50;;;;;;;;;;;;;;;13.72;70.07;99774.34;5054848;28;20016;-64
2021/09/29 05:52:34;;;;;;;;;;;;;;;13.72;70.17;99760.47;5054970;28;19928;-63
2021/09/29 05:55:19;;;;;;;;;;;;;;;13.72;70.38;99768.28;5054673;28;19928;-63
2021/09/29 05:58:03;;;;;;;;;;;;;;;13.72;70.34;99766.53;5056165;28;20391;-65
2021/09/29 06:00:47;;;;;;;;;;;;;;;13.70;70.42;99771.75;5055356;28;19928;-63
2021/09/29 06:03:30;;;;;;;;;;;;;;;13.69;70.52;99769.16;5056209;28;20284;-62
2021/09/29 06:06:14;;;;;;;;;;;;;;;13.70;70.72;99774.38;5056107;28;19927;-64
2021/09/29 06:09:04;;;;;;;;;;;;;;;13.70;70.64;99771.75;5055733;28;19928;-63
2021/09/29 06:11:50;;;;;;;;;;;;;;;13.69;70.58;99759.59;5055877;28;19943;-63
2021/09/29 06:14:35;;;;;;;;;;;;;;;13.68;70.95;99760.47;5055289;28;20015;-64
2021/09/29 06:17:26;;;;;;;;;;;;;;;13.69;70.72;99762.22;5054189;28;19927;-63
2021/09/29 06:20:10;;;;;;;;;;;;;;;13.69;70.67;99774.38;5055319;28;19970;-64
2021/09/29 06:22:55;;;;;;;;;;;;;;;13.68;70.91;99772.63;5054353;28;19928;-65
2021/09/29 06:25:38;;;;;;;;;;;;;;;13.67;70.89;99774.34;5054439;28;19971;-63
2021/09/29 06:28:22;;;;;;;;;;;;;;;13.66;71.01;99785.63;5054690;28;19928;-64
2021/09/29 06:31:07;;;;;;;;;;;;;;;13.66;71.01;99779.59;5054213;28;19951;-63
2021/09/29 06:33:50;;;;;;;;;;;;;;;13.65;71.12;99783.91;5055463;28;20406;-63
2021/09/29 06:36:34;;;;;;;;;;;;;;;13.66;71.19;99780.44;5054471;28;20284;-63
2021/09/29 06:39:18;;;;;;;;;;;;;;;13.66;71.25;99780.44;5054908;28;19981;-62
2021/09/29 06:42:04;;;;;;;;;;;;;;;13.66;71.28;99772.63;5054934;28;19928;-64
2021/09/29 06:44:51;;;;;;;;;;;;;;;13.67;71.29;99776.09;5054259;28;19966;-63
2021/09/29 06:47:35;;;;;;;;;;;;;;;13.65;71.35;99772.63;5053463;28;20041;-63
2021/09/29 06:50:22;;;;;;;;;;;;;;;13.64;71.45;99787.38;5054447;28;19928;-63
2021/09/29 06:53:14;;;;;;;;;;;;;;;13.65;71.65;99775.25;5054430;28;19947;-64
2021/09/29 06:56:05;;;;;;;;;;;;;;;13.64;71.46;99774.34;5054357;28;20303;-63
2021/09/29 06:58:52;;;;;;;;;;;;;;;13.65;71.49;99773.50;5053260;28;20415;-64
2021/09/29 07:01:36;;;;;;;;;;;;;;;13.66;71.59;99774.38;5053694;28;20046;-63
2021/09/29 07:04:20;;;;;;;;;;;;;;;13.65;71.64;99781.31;5054376;28;19931;-63
2021/09/29 07:07:04;;;;;;;;;;;;;;;13.66;71.58;99780.44;5054141;28;19927;-64
2021/09/29 07:09:48;;;;;;;;;;;;;;;13.69;71.49;99775.22;5054287;28;19928;-63
2021/09/29 07:12:32;;;;;;;;;;;;;;;13.70;71.51;99776.97;5054421;28;20391;-62
2021/09/29 07:15:16;;;;;;;;;;;;;;;13.72;71.53;99787.38;5054482;28;19932;-63
2021/09/29 07:18:04;;;;;;;;;;;;;;;13.71;71.70;99793.44;5054502;28;19960;-63
2021/09/29 07:20:50;;;;;;;;;;;;;;;13.72;71.89;99783.91;5052510;28;20381;-63
2021/09/29 07:23:34;;;;;;;;;;;;;;;13.72;71.90;99795.19;5053634;28;19942;-64
2021/09/29 07:26:20;;;;;;;;;;;;;;;13.72;71.73;99792.56;5054066;28;20039;-63
2021/09/29 07:29:04;;;;;;;;;;;;;;;13.72;71.87;99797.78;5053587;28;19966;-63
2021/09/29 07:31:54;;;;;;;;;;;;;;;13.74;71.82;99819.50;5053103;28;20345;-63
2021/09/29 07:34:41;;;;;;;;;;;;;;;13.73;71.91;99809.09;5053252;28;19928;-63
2021/09/29 07:37:28;;;;;;;;;;;;;;;13.73;72.04;99814.28;5053106;28;20411;-64
2021/09/29 07:40:15;;;;;;;;;;;;;;;13.72;71.87;99805.59;5053329;28;19927;-63
2021/09/29 07:43:01;;;;;;;;;;;;;;;13.70;71.84;99803.00;5053957;28;19979;-63
2021/09/29 07:45:47;;;;;;;;;;;;;;;13.70;71.83;99802.16;5052939;28;19940;-63
2021/09/29 07:48:34;;;;;;;;;;;;;;;13.68;72.00;99814.31;5053345;28;19927;-63
2021/09/29 07:51:18;;;;;;;;;;;;;;;13.67;71.81;99825.59;5052941;28;19928;-64
2021/09/29 07:54:04;;;;;;;;;;;;;;;13.65;71.84;99819.50;5053950;28;19929;-63
2021/09/29 07:56:54;;;;;;;;;;;;;;;13.67;71.77;99822.97;5053366;28;20407;-64
2021/09/29 07:59:47;;;;;;;;;;;;;;;13.65;71.91;99838.59;5052607;28;19944;-63
2021/09/29 08:02:31;;;;;;;;;;;;;;;13.63;72.16;99837.72;5053878;28;19928;-63
2021/09/29 08:05:21;;;;;;;;;;;;;;;13.63;72.12;99850.72;5053034;28;20018;-63
2021/09/29 08:08:05;;;;;;;;;;;;;;;13.62;71.92;99862.06;5053053;28;19956;-63
2021/09/29 08:10:49;;;;;;;;;;;;;;;13.59;72.08;99867.25;5053502;28;20428;-63
2021/09/29 08:13:32;;;;;;;;;;;;;;;13.58;71.96;99859.41;5052645;28;19967;-63
2021/09/29 08:16:16;;;;;;;;;;;;;;;13.57;71.96;99861.16;5053250;28;20402;-63
2021/09/29 08:19:00;;;;;;;;;;;;;;;13.54;71.88;99859.44;5054019;28;19928;-63
2021/09/29 08:21:46;;;;;;;;;;;;;;;13.54;72.14;99843.81;5054016;28;20456;-63
2021/09/29 08:25:14;;;;;;;;;;;;;;;13.54;71.92;99835.13;5052898;28;19928;-64
2021/09/29 08:39:06;;;;;;;;;;;;;;;13.53;71.86;99869.84;5053770;28;20280;-63
2021/09/29 08:42:00;;;;;;;;;;;;;;;13.52;72.00;99873.31;5053319;28;20449;-62
2021/09/29 08:47:44;;;;;;;;;;;;;;;13.51;71.84;99905.41;5053674;28;19966;-64
2021/09/29 08:54:08;;;;;;;;;;;;;;;13.47;71.85;99898.47;5055399;28;19943;-64
2021/09/29 09:18:05;;;;;;;;;;;;;;;13.53;71.94;99914.09;5056914;28;19928;-63
2021/09/29 09:20:59;;;;;;;;;;;;;;;13.52;72.20;99909.75;5056623;28;19971;-63
2021/09/29 09:23:43;;;;;;;;;;;;;;;13.50;72.07;99919.28;5056602;28;19943;-64
2021/09/29 09:26:28;;;;;;;;;;;;;;;13.50;72.00;99924.50;5055966;28;20375;-63
2021/09/29 09:29:12;;;;;;;;;;;;;;;13.49;72.04;99923.63;5056297;28;20462;-63
2021/09/29 09:32:10;;;;;;;;;;;;;;;13.51;72.03;99915.81;5056607;28;19931;-63
2021/09/29 09:35:01;;;;;;;;;;;;;;;13.52;72.07;99917.56;5055725;28;19928;-63
2021/09/29 09:37:53;;;;;;;;;;;;;;;13.52;72.43;99918.44;5055752;28;19966;-64
2021/09/29 09:40:37;;;;;;;;;;;;;;;13.52;72.37;99917.56;5055080;28;19928;-63
2021/09/29 09:43:28;;;;;;;;;;;;;;;13.53;72.50;99914.09;5056417;28;19927;-64
2021/09/29 09:46:16;;;;;;;;;;;;;;;13.55;72.21;99913.22;5055373;28;19975;-64
2021/09/29 09:49:08;;;;;;;;;;;;;;;13.57;72.32;99912.34;5055056;28;20339;-65
2021/09/29 09:51:54;;;;;;;;;;;;;;;13.58;72.22;99920.19;5056043;28;20284;-65
2021/09/29 09:54:40;;;;;;;;;;;;;;;13.62;72.22;99931.47;5055022;28;20392;-64
2021/09/29 09:57:24;;;;;;;;;;;;;;;13.61;72.53;99946.25;5054830;28;19928;-64
2021/09/29 10:00:09;;;;;;;;;;;;;;;13.63;72.32;99941.03;5055436;28;19928;-63
2021/09/29 10:02:55;;;;;;;;;;;;;;;13.63;72.45;99946.22;5054830;28;19963;-63
2021/09/29 10:05:42;;;;;;;;;;;;;;;13.64;72.39;99953.19;5054049;28;20338;-63
2021/09/29 10:08:28;;;;;;;;;;;;;;;13.66;72.60;99948.84;5054884;28;19931;-64
2021/09/29 10:11:26;;;;;;;;;;;;;;;13.66;72.62;99936.69;5055654;28;19928;-64
2021/09/29 10:14:27;;;;;;;;;;;;;;;13.68;72.47;99937.56;5054740;28;19931;-63
2021/09/29 10:26:23;;;;;;;;;;;;;;;13.62;72.45;99980.94;5055669;28;20076;-64
2021/09/29 10:29:14;;;;;;;;;;;;;;;13.59;72.32;99993.94;5055786;28;19928;-64
2021/09/29 10:41:05;;;;;;;;;;;;;;;13.41;71.99;99995.63;5055412;28;20005;-64
2021/09/29 11:02:59;;;;;;;;;;;;;;;13.57;72.28;99999.16;5054824;28;19927;-63
2021/09/29 11:05:26;;;;;;;;;;;;;;;13.61;72.33;99990.50;5054929;28;19928;-63
2021/09/29 11:29:33;;;;;;;;;;;;;;;13.64;71.86;100036.50;5053927;28;20402;-64
2021/09/29 11:32:33;;;;;;;;;;;;;;;13.63;71.79;100035.63;5053841;28;19966;-63
2021/09/29 11:38:31;;;;;;;;;;;;;;;13.69;71.87;100040.00;5054050;28;20019;-64
2021/09/29 12:11:52;;;;;;;;;;;;;;;13.87;70.98;100065.22;5053392;28;19928;-64
2021/09/29 12:14:37;;;;;;;;;;;;;;;13.86;71.09;100076.50;5053696;28;20451;-63
2021/09/29 12:17:22;;;;;;;;;;;;;;;13.87;70.74;100075.66;5052509;28;19927;-64
2021/09/29 12:20:13;;;;;;;;;;;;;;;13.86;71.02;100089.53;5053261;28;19928;-64
2021/09/29 12:23:00;;;;;;;;;;;;;;;13.86;70.80;100087.78;5052576;28;19975;-63
2021/09/29 12:25:54;;;;;;;;;;;;;;;13.89;70.98;100094.75;5052401;28;20288;-63
2021/09/29 12:28:55;;;;;;;;;;;;;;;13.92;71.08;100089.56;5055902;28;19928;-63
2021/09/29 12:34:31;;;;;;;;;;;;;;;13.97;70.86;100105.22;5057485;28;19947;-63
2021/09/29 12:37:15;;;;;;;;;;;;;;;14.00;70.92;100116.50;5056133;28;20012;-64
2021/09/29 12:39:59;;;;;;;;;;;;;;;14.01;70.86;100130.41;5056371;28;19927;-64
2021/09/29 12:42:43;;;;;;;;;;;;;;;14.00;70.85;100132.13;5056452;28;19927;-63
2021/09/29 12:45:31;;;;;;;;;;;;;;;13.99;70.65;100142.56;5056271;28;19944;-63
2021/09/29 12:48:17;;;;;;;;;;;;;;;13.95;70.57;100138.19;5056397;28;19928;-63
2021/09/29 12:51:09;;;;;;;;;;;;;;;13.92;70.55;100148.59;5056583;28;19966;-63
2021/09/29 12:53:57;;;;;;;;;;;;;;;13.91;70.33;100149.47;5057158;28;20430;-63
2021/09/29 12:56:42;;;;;;;;;;;;;;;13.88;70.31;100155.53;5057262;28;19928;-63
2021/09/29 12:59:28;;;;;;;;;;;;;;;13.86;70.18;100167.69;5057284;28;19928;-63
2021/09/29 13:02:12;;;;;;;;;;;;;;;13.82;70.06;100171.13;5057094;28;19928;-65
2021/09/29 13:04:58;;;;;;;;;;;;;;;13.78;69.88;100169.41;5056492;28;19970;-64
2021/09/29 13:07:42;;;;;;;;;;;;;;;13.78;70.12;100170.25;5056402;28;20387;-64
2021/09/29 13:10:26;;;;;;;;;;;;;;;13.77;70.08;100173.72;5056800;28;19931;-64
2021/09/29 13:13:11;;;;;;;;;;;;;;;13.74;69.85;100172.84;5056105;28;19963;-64
2021/09/29 13:15:58;;;;;;;;;;;;;;;13.70;69.74;100172.81;5056985;28;19973;-64
2021/09/29 13:18:54;;;;;;;;;;;;;;;13.73;69.75;100178.91;5055954;28;19971;-64
2021/09/29 13:22:01;;;;;;;;;;;;;;;13.73;69.69;100179.78;5055369;28;19927;-63
2021/09/29 13:25:17;;;;;;;;;;;;;;;13.70;69.64;100185.00;5055504;28;20031;-65
2021/09/29 13:37:11;;;;;;;;;;;;;;;13.69;69.84;100212.75;5056039;28;19951;-63
2021/09/29 13:39:55;;;;;;;;;;;;;;;13.74;69.95;100222.34;5056330;28;19928;-63
2021/09/29 13:42:39;;;;;;;;;;;;;;;13.76;70.12;100229.28;5056430;28;19974;-63
2021/09/29 13:45:23;;;;;;;;;;;;;;;13.77;70.06;100227.56;5055885;28;19927;-64
2021/09/29 13:48:07;;;;;;;;;;;;;;;13.81;69.79;100231.91;5055764;28;19927;-63
2021/09/29 13:50:51;;;;;;;;;;;;;;;13.82;70.22;100229.34;5055989;28;19927;-63
2021/09/29 13:53:38;;;;;;;;;;;;;;;13.83;70.20;100227.59;5056031;28;19928;-63
2021/09/29 13:56:26;;;;;;;;;;;;;;;13.82;69.99;100236.25;5056032;28;19928;-64
2021/09/29 13:59:25;;;;;;;;;;;;;;;13.81;69.97;100248.44;5056242;28;20288;-64
2021/09/29 14:35:36;;;;;;;;;;;;;;;13.82;69.35;100293.56;5054858;28;19944;-63
2021/09/29 14:38:20;;;;;;;;;;;;;;;13.81;69.28;100299.63;5055207;28;19975;-63
2021/09/29 14:41:04;;;;;;;;;;;;;;;13.78;69.26;100299.66;5054136;28;19928;-63
2021/09/29 14:43:51;;;;;;;;;;;;;;;13.76;69.09;100311.78;5054957;28;19943;-64
2021/09/29 14:46:36;;;;;;;;;;;;;;;13.73;68.96;100311.75;5054345;28;19927;-64
2021/09/29 14:49:22;;;;;;;;;;;;;;;13.72;68.99;100321.28;5054821;28;19928;-64
2021/09/29 14:52:06;;;;;;;;;;;;;;;13.73;69.39;100311.75;5054088;28;19947;-63
2021/09/29 14:54:51;;;;;;;;;;;;;;;13.72;69.00;100310.84;5053672;28;19943;-63
2021/09/29 14:57:38;;;;;;;;;;;;;;;13.73;69.21;100322.16;5053290;28;19970;-63
2021/09/29 15:00:32;;;;;;;;;;;;;;;13.72;69.10;100320.41;5053790;28;19927;-64
2021/09/29 15:03:16;;;;;;;;;;;;;;;13.69;68.73;100318.69;5053106;28;20013;-64
2021/09/29 15:06:02;;;;;;;;;;;;;;;13.68;68.74;100317.78;5053676;28;20026;-63
2021/09/29 15:08:46;;;;;;;;;;;;;;;13.69;68.80;100329.94;5054821;28;20280;-64
2021/09/29 15:11:30;;;;;;;;;;;;;;;13.69;68.61;100332.56;5054792;28;20015;-63
2021/09/29 15:14:32;;;;;;;;;;;;;;;13.68;68.39;100329.94;5054357;28;19928;-64
2021/09/29 15:32:25;;;;;;;;;;;;;;;13.64;67.98;100355.06;5054342;28;19959;-63
2021/09/29 15:47:56;;;;;;;;;;;;;;;13.65;67.96;100374.19;5053543;28;19927;-63
2021/09/29 16:14:22;;;;;;;;;;;;;;;13.62;67.75;100385.47;5043174;28;19928;-64
2021/09/29 16:17:32;;;;;;;;;;;;;;;13.61;67.50;100396.75;5052747;28;19974;-64
2021/09/29 16:32:17;;;;;;;;;;;;;;;13.60;67.67;100415.84;5053459;28;20038;-63
2021/09/29 16:35:04;;;;;;;;;;;;;;;13.59;67.52;100426.22;5052643;28;19951;-64
2021/09/29 16:37:48;;;;;;;;;;;;;;;13.57;67.32;100428.81;5052483;28;19974;-63
2021/09/29 16:40:35;;;;;;;;;;;;;;;13.56;67.27;100442.69;5053302;28;19927;-64
2021/09/29 16:43:19;;;;;;;;;;;;;;;13.52;67.05;100439.19;5052509;28;19928;-63
2021/09/29 16:46:03;;;;;;;;;;;;;;;13.50;67.08;100446.09;5053240;28;20403;-64
2021/09/29 16:48:50;;;;;;;;;;;;;;;13.48;67.13;100458.25;5052683;28;20426;-64
2021/09/29 16:51:41;;;;;;;;;;;;;;;13.47;66.96;100464.28;5053467;28;20330;-64
2021/09/29 16:54:31;;;;;;;;;;;;;;;13.47;66.93;100460.84;5052259;28;19943;-64
2021/09/29 16:57:35;;;;;;;;;;;;;;;13.46;67.19;100470.34;5052427;28;20300;-64
2021/09/29 17:00:29;;;;;;;;;;;;;;;13.45;66.96;100489.44;5052635;28;20396;-64
2021/09/29 17:03:16;;;;;;;;;;;;;;;13.43;67.02;100487.69;5052065;28;19927;-63
2021/09/29 17:06:00;;;;;;;;;;;;;;;13.41;66.65;100492.84;5052486;28;20292;-64
2021/09/29 17:08:52;;;;;;;;;;;;;;;13.42;66.88;100506.75;5052244;28;19928;-63
2021/09/29 17:11:42;;;;;;;;;;;;;;;13.38;66.54;100506.69;5052297;28;19931;-63
2021/09/29 17:14:37;;;;;;;;;;;;;;;13.37;66.61;100510.16;5054319;28;19955;-63
2021/09/29 17:17:29;;;;;;;;;;;;;;;13.37;66.63;100512.75;5056299;28;19943;-63
2021/09/29 17:20:19;;;;;;;;;;;;;;;13.37;66.43;100511.88;5056636;28;19998;-63
2021/09/29 17:23:08;;;;;;;;;;;;;;;13.37;66.45;100514.50;5055393;28;19927;-64
2021/09/29 17:26:01;;;;;;;;;;;;;;;13.35;66.76;100517.06;5055908;28;19928;-64
2021/09/29 17:28:53;;;;;;;;;;;;;;;13.36;66.61;100525.75;5055287;28;19963;-63
2021/09/29 17:48:05;;;;;;;;;;;;;;;13.28;66.68;100554.28;5034118;28;19971;-64
2021/09/29 17:53:26;;;;;;;;;;;;;;;13.25;66.32;100567.25;5056358;28;19927;-65
2021/09/29 17:56:21;;;;;;;;;;;;;;;13.24;66.26;100568.13;5054867;28;19966;-63
2021/09/29 17:59:08;;;;;;;;;;;;;;;13.25;66.45;100575.06;5055372;28;19927;-64
2021/09/29 18:01:56;;;;;;;;;;;;;;;13.24;66.45;100583.72;5054846;28;19935;-64
2021/09/29 18:04:52;;;;;;;;;;;;;;;13.23;66.30;100590.69;5055966;28;19928;-64
2021/09/29 18:07:50;;;;;;;;;;;;;;;13.25;66.51;100588.94;5055891;28;19974;-64
2021/09/29 18:10:42;;;;;;;;;;;;;;;13.24;66.40;100596.75;5055140;28;19928;-64
2021/09/29 18:13:37;;;;;;;;;;;;;;;13.23;66.12;100603.69;5054969;28;19954;-64
2021/09/29 18:16:29;;;;;;;;;;;;;;;13.22;66.43;100616.66;5054283;28;19928;-63
2021/09/29 18:19:24;;;;;;;;;;;;;;;13.20;66.04;100614.06;5054654;28;19971;-64
2021/09/29 18:22:20;;;;;;;;;;;;;;;13.18;66.20;100613.16;5054139;28;19971;-64
2021/09/29 18:25:12;;;;;;;;;;;;;;;13.15;66.32;100620.91;5053891;28;19928;-63
2021/09/29 18:27:59;;;;;;;;;;;;;;;13.15;66.10;100620.06;5054243;28;20307;-63
2021/09/29 18:30:45;;;;;;;;;;;;;;;13.13;66.14;100621.75;5054779;28;19927;-64
2021/09/29 18:33:29;;;;;;;;;;;;;;;13.12;65.88;100622.59;5054836;28;19942;-63
2021/09/29 18:36:24;;;;;;;;;;;;;;;13.12;66.29;100627.81;5055379;28;19928;-63
2021/09/29 18:39:19;;;;;;;;;;;;;;;13.10;66.47;100632.97;5053977;28;19928;-63
2021/09/29 18:42:17;;;;;;;;;;;;;;;13.11;66.46;100642.53;5054361;28;19928;-63
2021/09/29 18:45:13;;;;;;;;;;;;;;;13.09;66.35;100639.91;5053906;28;19943;-63